createdAt,value
2017-03-13T00:02:30.954Z,926.13
2017-03-13T00:04:49.380Z,926.17
2017-03-13T00:07:11.933Z,926.23
2017-03-13T00:07:26.522Z,926.25
2017-03-13T00:07:51.403Z,926.23
2017-03-13T00:09:08.590Z,926.22
2017-03-13T00:10:24.993Z,926.17
2017-03-13T00:11:57.470Z,926.21
2017-03-13T00:13:13.853Z,926.22
2017-03-13T00:14:30.305Z,926.19
2017-03-13T00:16:54.026Z,926.22
2017-03-13T00:18:36.127Z,926.27
2017-03-13T00:19:21.676Z,926.31
2017-03-13T00:19:36.342Z,926.33
2017-03-13T00:20:21.858Z,926.34
2017-03-13T00:25:12.973Z,926.43
2017-03-13T00:28:20.155Z,926.42
2017-03-13T00:31:15.464Z,926.39
2017-03-13T00:39:22.341Z,926.48
2017-03-13T00:41:24.269Z,926.49
2017-03-13T00:45:19.383Z,926.56
2017-03-13T00:51:54.272Z,926.45
2017-03-13T00:55:01.897Z,926.44
2017-03-13T00:56:18.320Z,926.45
2017-03-13T00:57:08.954Z,926.5
2017-03-13T00:58:19.544Z,926.48
2017-03-13T00:59:25.399Z,926.51
2017-03-13T01:00:43.068Z,926.54
2017-03-13T01:01:28.617Z,926.55
2017-03-13T01:01:43.160Z,926.58
2017-03-13T01:05:38.804Z,926.48
2017-03-13T01:07:20.332Z,926.43
2017-03-13T01:07:35.383Z,926.45
2017-03-13T01:10:09.797Z,926.44
2017-03-13T01:13:58.353Z,926.48
2017-03-13T01:14:13.759Z,926.48
2017-03-13T01:15:35.460Z,926.55
2017-03-13T01:15:50.128Z,926.54
2017-03-13T01:18:54.496Z,926.59
2017-03-13T01:21:27.319Z,926.58
2017-03-13T01:22:01.177Z,926.61
2017-03-13T01:26:16.071Z,926.51
2017-03-13T01:42:07.629Z,926.51
2017-03-13T01:42:22.258Z,926.5
2017-03-13T01:43:53.501Z,926.47
2017-03-13T01:44:45.763Z,926.47
2017-03-13T01:47:00.848Z,926.46
2017-03-13T01:47:47.134Z,926.49
2017-03-13T01:49:14.066Z,926.48
2017-03-13T01:52:41.952Z,926.46
2017-03-13T01:55:41.039Z,926.46
2017-03-13T01:57:12.448Z,926.47
2017-03-13T01:58:03.208Z,926.46
2017-03-13T01:58:30.659Z,926.48
2017-03-13T02:00:24.290Z,926.46
2017-03-13T02:00:38.953Z,926.47
2017-03-13T02:01:20.077Z,926.51
2017-03-13T02:03:15.196Z,926.63
2017-03-13T02:18:42.603Z,927.17
2017-03-13T02:20:57.292Z,927.17
2017-03-13T02:36:13.449Z,927.31
2017-03-13T02:37:29.885Z,927.4
2017-03-13T02:37:46.968Z,927.33
2017-03-13T02:38:01.635Z,927.38
2017-03-13T02:38:16.294Z,927.29
2017-03-13T02:38:37.838Z,927.49
2017-03-13T02:39:23.402Z,927.37
2017-03-13T02:40:02.968Z,927.35
2017-03-13T02:40:48.505Z,927.29
2017-03-13T02:41:03.070Z,927.35
2017-03-13T02:41:48.592Z,927.31
2017-03-13T02:42:06.264Z,927.26
2017-03-13T02:42:20.897Z,927.34
2017-03-13T02:58:17.025Z,927.43
2017-03-13T02:58:39.351Z,927.49
2017-03-13T03:13:53.670Z,927.35
2017-03-13T03:14:08.295Z,927.38
2017-03-13T03:14:23.057Z,927.32
2017-03-13T03:14:37.719Z,927.36
2017-03-13T03:14:55.392Z,927.37
2017-03-13T03:15:09.972Z,927.35
2017-03-13T03:15:50.229Z,927.35
2017-03-13T03:16:04.892Z,927.34
2017-03-13T03:16:19.758Z,927.35
2017-03-13T03:16:35.091Z,927.33
2017-03-13T03:16:49.732Z,927.34
2017-03-13T03:17:04.360Z,927.37
2017-03-13T03:17:19.066Z,927.32
2017-03-13T03:17:33.661Z,927.32
2017-03-13T03:17:48.303Z,927.33
2017-03-13T03:18:02.950Z,927.33
2017-03-13T03:18:18.744Z,927.35
2017-03-13T03:18:33.432Z,927.39
2017-03-13T03:18:48.139Z,927.38
2017-03-13T03:19:02.730Z,927.35
2017-03-13T03:19:17.425Z,927.35
2017-03-13T03:19:32.025Z,927.35
2017-03-13T03:19:46.672Z,927.36
2017-03-13T03:20:01.233Z,927.37
2017-03-13T03:20:15.781Z,927.36
2017-03-13T03:20:30.373Z,927.33
2017-03-13T03:20:46.091Z,927.32
2017-03-13T03:21:00.691Z,927.32
2017-03-13T03:21:15.244Z,927.32
2017-03-13T03:21:29.829Z,927.3
2017-03-13T03:21:44.568Z,927.34
2017-03-13T03:21:59.236Z,927.34
2017-03-13T03:22:13.821Z,927.3
2017-03-13T03:22:28.503Z,927.35
2017-03-13T03:22:43.106Z,927.35
2017-03-13T03:22:57.698Z,927.35
2017-03-13T03:23:17.451Z,927.32
2017-03-13T03:23:32.051Z,927.34
2017-03-13T03:23:47.816Z,927.3
2017-03-13T03:24:03.678Z,927.35
2017-03-13T03:24:18.776Z,927.32
2017-03-13T03:24:33.350Z,927.33
2017-03-13T03:24:47.919Z,927.32
2017-03-13T03:25:02.801Z,927.34
2017-03-13T03:25:17.367Z,927.32
2017-03-13T03:25:31.979Z,927.3
2017-03-13T03:25:46.525Z,927.38
2017-03-13T03:26:01.165Z,927.35
2017-03-13T03:26:15.771Z,927.34
2017-03-13T03:26:30.398Z,927.32
2017-03-13T03:26:44.998Z,927.38
2017-03-13T03:26:59.586Z,927.35
2017-03-13T03:27:14.256Z,927.35
2017-03-13T03:27:28.912Z,927.34
2017-03-13T03:27:43.635Z,927.32
2017-03-13T03:27:58.341Z,927.32
2017-03-13T03:28:12.934Z,927.33
2017-03-13T03:28:27.527Z,927.33
2017-03-13T03:28:42.494Z,927.32
2017-03-13T03:28:57.370Z,927.34
2017-03-13T03:29:12.015Z,927.31
2017-03-13T03:29:26.606Z,927.34
2017-03-13T03:29:41.183Z,927.36
2017-03-13T03:29:55.763Z,927.34
2017-03-13T03:30:10.318Z,927.4
2017-03-13T03:30:24.928Z,927.36
2017-03-13T03:30:39.545Z,927.29
2017-03-13T03:30:54.178Z,927.29
2017-03-13T03:31:08.794Z,927.3
2017-03-13T03:31:23.400Z,927.3
2017-03-13T03:31:38.047Z,927.34
2017-03-13T03:31:52.707Z,927.33
2017-03-13T03:32:07.361Z,927.28
2017-03-13T03:32:21.930Z,927.26
2017-03-13T03:32:36.560Z,927.31
2017-03-13T03:32:51.120Z,927.32
2017-03-13T03:33:06.042Z,927.29
2017-03-13T03:33:20.608Z,927.27
2017-03-13T03:33:35.242Z,927.28
2017-03-13T03:33:49.937Z,927.27
2017-03-13T03:34:04.572Z,927.27
2017-03-13T03:34:19.182Z,927.27
2017-03-13T03:34:33.830Z,927.29
2017-03-13T03:34:48.394Z,927.27
2017-03-13T03:35:02.986Z,927.25
2017-03-13T03:35:17.536Z,927.23
2017-03-13T03:35:32.124Z,927.22
2017-03-13T03:35:46.710Z,927.25
2017-03-13T03:36:01.419Z,927.25
2017-03-13T03:36:16.105Z,927.21
2017-03-13T03:36:30.758Z,927.19
2017-03-13T03:36:45.408Z,927.18
2017-03-13T03:36:59.986Z,927.21
2017-03-13T03:37:14.619Z,927.17
2017-03-13T03:37:29.495Z,927.22
2017-03-13T03:37:44.104Z,927.13
2017-03-13T03:37:58.644Z,927.12
2017-03-13T03:38:13.308Z,927.12
2017-03-13T03:38:27.929Z,927.08
2017-03-13T03:38:42.516Z,927.12
2017-03-13T03:38:57.130Z,927.08
2017-03-13T03:39:11.707Z,927.08
2017-03-13T03:39:26.312Z,927.09
2017-03-13T03:39:40.950Z,927.04
2017-03-13T03:39:55.580Z,927.01
2017-03-13T03:40:10.194Z,927.01
2017-03-13T03:40:24.807Z,926.99
2017-03-13T03:40:39.425Z,926.96
2017-03-13T03:40:54.044Z,927.02
2017-03-13T03:41:08.629Z,927
2017-03-13T03:41:23.181Z,926.95
2017-03-13T03:41:37.756Z,926.99
2017-03-13T03:41:52.373Z,926.96
2017-03-13T03:42:06.982Z,927
2017-03-13T03:42:21.552Z,926.98
2017-03-13T03:42:36.121Z,926.96
2017-03-13T03:42:50.767Z,926.96
2017-03-13T03:43:05.366Z,926.97
2017-03-13T03:43:20.029Z,926.96
2017-03-13T03:43:34.596Z,926.95
2017-03-13T03:43:49.224Z,926.98
2017-03-13T03:44:04.093Z,926.92
2017-03-13T03:44:18.768Z,926.91
2017-03-13T03:44:33.363Z,926.92
2017-03-13T03:44:47.932Z,926.94
2017-03-13T03:45:02.541Z,926.88
2017-03-13T03:45:17.154Z,926.91
2017-03-13T03:45:31.733Z,926.87
2017-03-13T03:45:46.356Z,926.88
2017-03-13T03:46:00.915Z,926.88
2017-03-13T03:46:15.494Z,926.85
2017-03-13T03:46:30.330Z,926.83
2017-03-13T03:46:44.949Z,926.84
2017-03-13T03:46:59.548Z,926.87
2017-03-13T03:47:14.236Z,926.84
2017-03-13T03:47:28.809Z,926.8
2017-03-13T03:47:43.353Z,926.83
2017-03-13T03:47:58.013Z,926.83
2017-03-13T03:48:12.542Z,926.83
2017-03-13T03:48:27.123Z,926.84
2017-03-13T03:48:41.774Z,926.83
2017-03-13T03:48:56.363Z,926.84
2017-03-13T03:49:11.006Z,926.87
2017-03-13T03:49:25.527Z,926.83
2017-03-13T03:49:40.144Z,926.88
2017-03-13T03:49:54.769Z,926.89
2017-03-13T03:50:09.402Z,926.84
2017-03-13T03:50:23.986Z,926.85
2017-03-13T03:50:38.565Z,926.85
2017-03-13T03:50:53.154Z,926.88
2017-03-13T03:51:07.773Z,926.86
2017-03-13T03:51:22.365Z,926.87
2017-03-13T03:51:36.964Z,926.85
2017-03-13T03:51:51.622Z,926.84
2017-03-13T03:52:06.217Z,926.86
2017-03-13T03:52:20.786Z,926.86
2017-03-13T03:52:35.372Z,926.83
2017-03-13T03:52:49.954Z,926.81
2017-03-13T03:53:04.588Z,926.85
2017-03-13T03:53:19.163Z,926.83
2017-03-13T03:53:33.792Z,926.84
2017-03-13T03:53:48.415Z,926.85
2017-03-13T03:54:02.987Z,926.85
2017-03-13T03:54:17.616Z,926.83
2017-03-13T03:54:32.214Z,926.79
2017-03-13T03:54:46.838Z,926.8
2017-03-13T03:55:01.451Z,926.8
2017-03-13T03:55:16.085Z,926.78
2017-03-13T03:55:30.674Z,926.81
2017-03-13T03:55:45.237Z,926.74
2017-03-13T03:55:59.825Z,926.78
2017-03-13T03:56:14.452Z,926.75
2017-03-13T03:56:29.099Z,926.74
2017-03-13T03:56:43.682Z,926.76
2017-03-13T03:56:58.290Z,926.69
2017-03-13T03:57:12.898Z,926.7
2017-03-13T03:57:27.536Z,926.68
2017-03-13T03:57:42.168Z,926.68
2017-03-13T03:57:56.779Z,926.67
2017-03-13T03:58:11.449Z,926.65
2017-03-13T03:58:26.114Z,926.68
2017-03-13T03:58:40.759Z,926.67
2017-03-13T03:58:55.425Z,926.64
2017-03-13T03:59:10.231Z,926.64
2017-03-13T03:59:24.801Z,926.67
2017-03-13T03:59:39.379Z,926.65
2017-03-13T03:59:53.996Z,926.6
2017-03-13T04:00:08.603Z,926.59
2017-03-13T04:00:23.182Z,926.61
2017-03-13T04:00:37.805Z,926.62
2017-03-13T04:00:52.387Z,926.61
2017-03-13T04:01:06.932Z,926.63
2017-03-13T04:01:21.505Z,926.6
2017-03-13T04:01:36.123Z,926.66
2017-03-13T04:01:50.691Z,926.64
2017-03-13T04:02:05.314Z,926.69
2017-03-13T04:02:19.905Z,926.65
2017-03-13T04:02:34.514Z,926.63
2017-03-13T04:02:49.125Z,926.64
2017-03-13T04:03:03.737Z,926.64
2017-03-13T04:03:18.353Z,926.64
2017-03-13T04:03:32.960Z,926.61
2017-03-13T04:03:47.638Z,926.6
2017-03-13T04:04:02.235Z,926.62
2017-03-13T04:04:16.808Z,926.61
2017-03-13T04:04:31.366Z,926.58
2017-03-13T04:04:46.035Z,926.6
2017-03-13T04:05:00.613Z,926.6
2017-03-13T04:05:15.194Z,926.57
2017-03-13T04:05:29.787Z,926.56
2017-03-13T04:05:44.418Z,926.56
2017-03-13T04:05:59.026Z,926.55
2017-03-13T04:06:13.710Z,926.53
2017-03-13T04:06:28.314Z,926.58
2017-03-13T04:06:42.940Z,926.53
2017-03-13T04:06:57.533Z,926.52
2017-03-13T04:07:12.053Z,926.55
2017-03-13T04:07:26.651Z,926.55
2017-03-13T04:07:41.242Z,926.52
2017-03-13T04:07:55.848Z,926.49
2017-03-13T04:08:10.452Z,926.52
2017-03-13T04:08:25.024Z,926.51
2017-03-13T04:08:39.628Z,926.52
2017-03-13T04:08:54.301Z,926.48
2017-03-13T04:09:08.924Z,926.49
2017-03-13T04:09:23.517Z,926.53
2017-03-13T04:09:38.102Z,926.53
2017-03-13T04:09:52.721Z,926.49
2017-03-13T04:10:07.346Z,926.51
2017-03-13T04:10:21.936Z,926.48
2017-03-13T04:10:36.576Z,926.52
2017-03-13T04:10:51.207Z,926.51
2017-03-13T04:11:05.774Z,926.52
2017-03-13T04:11:20.357Z,926.51
2017-03-13T04:11:34.985Z,926.51
2017-03-13T04:11:49.598Z,926.52
2017-03-13T04:12:04.212Z,926.49
2017-03-13T04:12:18.845Z,926.52
2017-03-13T04:12:33.483Z,926.51
2017-03-13T04:12:48.092Z,926.51
2017-03-13T04:13:02.682Z,926.5
2017-03-13T04:13:17.259Z,926.49
2017-03-13T04:13:31.844Z,926.52
2017-03-13T04:13:46.466Z,926.46
2017-03-13T04:14:01.038Z,926.48
2017-03-13T04:14:15.787Z,926.5
2017-03-13T04:14:30.429Z,926.47
2017-03-13T04:14:45.109Z,926.46
2017-03-13T04:14:59.709Z,926.49
2017-03-13T04:15:14.311Z,926.48
2017-03-13T04:15:28.903Z,926.47
2017-03-13T04:15:43.520Z,926.43
2017-03-13T04:15:58.171Z,926.45
2017-03-13T04:16:12.743Z,926.41
2017-03-13T04:16:27.325Z,926.45
2017-03-13T04:16:41.911Z,926.45
2017-03-13T04:16:56.552Z,926.44
2017-03-13T04:17:11.179Z,926.43
2017-03-13T04:17:25.871Z,926.42
2017-03-13T04:17:40.475Z,926.41
2017-03-13T04:17:55.070Z,926.42
2017-03-13T04:18:09.641Z,926.4
2017-03-13T04:18:24.205Z,926.43
2017-03-13T04:18:38.837Z,926.38
2017-03-13T04:18:53.448Z,926.4
2017-03-13T04:19:08.071Z,926.38
2017-03-13T04:19:22.623Z,926.38
2017-03-13T04:19:37.220Z,926.41
2017-03-13T04:19:51.839Z,926.41
2017-03-13T04:20:06.432Z,926.36
2017-03-13T04:20:21.036Z,926.41
2017-03-13T04:20:35.627Z,926.39
2017-03-13T04:20:50.205Z,926.38
2017-03-13T04:21:04.798Z,926.4
2017-03-13T04:21:19.393Z,926.39
2017-03-13T04:21:34.033Z,926.33
2017-03-13T04:21:48.599Z,926.35
2017-03-13T04:22:03.208Z,926.33
2017-03-13T04:22:17.831Z,926.32
2017-03-13T04:22:32.394Z,926.35
2017-03-13T04:22:47.023Z,926.33
2017-03-13T04:23:01.571Z,926.31
2017-03-13T04:23:16.117Z,926.31
2017-03-13T04:23:30.749Z,926.33
2017-03-13T04:23:45.373Z,926.31
2017-03-13T04:24:00.024Z,926.28
2017-03-13T04:24:14.646Z,926.28
2017-03-13T04:24:29.210Z,926.29
2017-03-13T04:24:43.821Z,926.3
2017-03-13T04:24:58.430Z,926.26
2017-03-13T04:25:13.046Z,926.28
2017-03-13T04:25:27.608Z,926.3
2017-03-13T04:25:42.679Z,926.27
2017-03-13T04:25:57.291Z,926.3
2017-03-13T04:26:11.851Z,926.29
2017-03-13T04:26:26.485Z,926.33
2017-03-13T04:26:41.101Z,926.3
2017-03-13T04:26:55.712Z,926.34
2017-03-13T04:27:10.340Z,926.32
2017-03-13T04:27:24.904Z,926.33
2017-03-13T04:27:39.486Z,926.34
2017-03-13T04:27:54.069Z,926.3
2017-03-13T04:28:08.630Z,926.35
2017-03-13T04:28:23.199Z,926.36
2017-03-13T04:28:37.830Z,926.33
2017-03-13T04:28:52.449Z,926.38
2017-03-13T04:29:07.057Z,926.35
2017-03-13T04:29:22.056Z,926.34
2017-03-13T04:29:36.676Z,926.35
2017-03-13T04:29:51.223Z,926.37
2017-03-13T04:30:05.860Z,926.35
2017-03-13T04:30:20.455Z,926.35
2017-03-13T04:30:35.064Z,926.37
2017-03-13T04:30:49.675Z,926.38
2017-03-13T04:31:04.283Z,926.36
2017-03-13T04:31:18.854Z,926.35
2017-03-13T04:31:33.378Z,926.38
2017-03-13T04:31:47.962Z,926.34
2017-03-13T04:32:02.568Z,926.34
2017-03-13T04:32:17.249Z,926.34
2017-03-13T04:32:31.886Z,926.32
2017-03-13T04:32:46.509Z,926.33
2017-03-13T04:33:01.115Z,926.32
2017-03-13T04:33:15.696Z,926.31
2017-03-13T04:33:30.249Z,926.3
2017-03-13T04:33:44.908Z,926.32
2017-03-13T04:33:59.524Z,926.33
2017-03-13T04:34:14.120Z,926.29
2017-03-13T04:34:28.702Z,926.32
2017-03-13T04:34:43.340Z,926.26
2017-03-13T04:34:57.922Z,926.3
2017-03-13T04:35:12.502Z,926.25
2017-03-13T04:35:27.029Z,926.27
2017-03-13T04:35:41.653Z,926.26
2017-03-13T04:35:56.261Z,926.29
2017-03-13T04:36:10.842Z,926.31
2017-03-13T04:36:25.503Z,926.29
2017-03-13T04:36:40.104Z,926.28
2017-03-13T04:36:54.674Z,926.27
2017-03-13T04:37:09.311Z,926.25
2017-03-13T04:37:23.953Z,926.28
2017-03-13T04:37:38.571Z,926.21
2017-03-13T04:37:53.150Z,926.22
2017-03-13T04:38:07.759Z,926.21
2017-03-13T04:38:22.343Z,926.21
2017-03-13T04:38:36.960Z,926.25
2017-03-13T04:38:51.582Z,926.21
2017-03-13T04:39:06.180Z,926.23
2017-03-13T04:39:20.765Z,926.22
2017-03-13T04:39:35.323Z,926.2
2017-03-13T04:39:49.863Z,926.2
2017-03-13T04:40:04.445Z,926.21
2017-03-13T04:40:19.043Z,926.22
2017-03-13T04:40:33.645Z,926.21
2017-03-13T04:40:48.223Z,926.21
2017-03-13T04:41:02.794Z,926.19
2017-03-13T04:41:17.298Z,926.24
2017-03-13T04:41:31.900Z,926.21
2017-03-13T04:41:46.484Z,926.26
2017-03-13T04:42:01.015Z,926.25
2017-03-13T04:42:15.630Z,926.24
2017-03-13T04:42:30.231Z,926.24
2017-03-13T04:42:44.833Z,926.26
2017-03-13T04:42:59.466Z,926.27
2017-03-13T04:43:14.066Z,926.25
2017-03-13T04:43:28.636Z,926.29
2017-03-13T04:43:43.238Z,926.32
2017-03-13T04:43:57.846Z,926.32
2017-03-13T04:44:12.394Z,926.33
2017-03-13T04:44:26.976Z,926.35
2017-03-13T04:44:41.836Z,926.35
2017-03-13T04:44:56.473Z,926.35
2017-03-13T04:45:11.120Z,926.38
2017-03-13T04:45:25.759Z,926.35
2017-03-13T04:45:40.382Z,926.39
2017-03-13T04:45:54.958Z,926.39
2017-03-13T04:46:09.517Z,926.42
2017-03-13T04:46:24.081Z,926.41
2017-03-13T04:46:38.675Z,926.39
2017-03-13T04:46:53.504Z,926.35
2017-03-13T04:47:08.137Z,926.37
2017-03-13T04:47:22.705Z,926.37
2017-03-13T04:47:37.342Z,926.37
2017-03-13T04:47:51.960Z,926.35
2017-03-13T04:48:06.601Z,926.31
2017-03-13T04:48:21.414Z,926.34
2017-03-13T04:48:36.054Z,926.31
2017-03-13T04:48:50.716Z,926.32
2017-03-13T04:49:05.330Z,926.3
2017-03-13T04:49:19.915Z,926.27
2017-03-13T04:49:34.480Z,926.29
2017-03-13T04:49:49.102Z,926.27
2017-03-13T04:50:03.941Z,926.28
2017-03-13T04:50:18.605Z,926.28
2017-03-13T04:50:33.251Z,926.28
2017-03-13T04:50:47.835Z,926.24
2017-03-13T04:51:02.431Z,926.26
2017-03-13T04:51:16.993Z,926.24
2017-03-13T04:51:31.644Z,926.27
2017-03-13T04:51:46.233Z,926.27
2017-03-13T04:52:00.841Z,926.28
2017-03-13T04:52:15.416Z,926.27
2017-03-13T04:52:30.007Z,926.27
2017-03-13T04:52:44.602Z,926.23
2017-03-13T04:52:59.262Z,926.23
2017-03-13T04:53:13.830Z,926.25
2017-03-13T04:53:28.454Z,926.2
2017-03-13T04:53:43.032Z,926.23
2017-03-13T04:53:57.569Z,926.2
2017-03-13T04:54:12.179Z,926.21
2017-03-13T04:54:26.792Z,926.19
2017-03-13T04:54:41.385Z,926.18
2017-03-13T04:54:55.962Z,926.21
2017-03-13T04:55:10.572Z,926.18
2017-03-13T04:55:25.226Z,926.19
2017-03-13T04:55:39.862Z,926.18
2017-03-13T04:55:54.470Z,926.14
2017-03-13T04:56:09.103Z,926.11
2017-03-13T04:56:23.712Z,926.13
2017-03-13T04:56:38.382Z,926.11
2017-03-13T04:56:52.920Z,926.11
2017-03-13T04:57:07.559Z,926.12
2017-03-13T04:57:22.120Z,926.1
2017-03-13T04:57:36.719Z,926.14
2017-03-13T04:57:51.321Z,926.11
2017-03-13T04:58:05.915Z,926.09
2017-03-13T04:58:20.520Z,926.07
2017-03-13T04:58:35.109Z,926.09
2017-03-13T04:58:49.693Z,926.1
2017-03-13T04:59:04.298Z,926.08
2017-03-13T04:59:18.891Z,926.12
2017-03-13T04:59:33.483Z,926.12
2017-03-13T04:59:48.305Z,926.09
2017-03-13T05:00:02.939Z,926.08
2017-03-13T05:00:17.537Z,926.08
2017-03-13T05:00:32.181Z,926.1
2017-03-13T05:00:46.831Z,926.09
2017-03-13T05:01:01.430Z,926.08
2017-03-13T05:01:15.937Z,926.1
2017-03-13T05:01:30.547Z,926.06
2017-03-13T05:01:45.170Z,926.05
2017-03-13T05:01:59.789Z,926.03
2017-03-13T05:02:14.431Z,926.02
2017-03-13T05:02:29.022Z,926.01
2017-03-13T05:02:43.599Z,925.99
2017-03-13T05:02:58.208Z,925.98
2017-03-13T05:03:12.854Z,925.99
2017-03-13T05:03:27.374Z,925.98
2017-03-13T05:03:41.971Z,925.96
2017-03-13T05:03:56.614Z,925.93
2017-03-13T05:04:11.224Z,925.92
2017-03-13T05:04:25.817Z,925.86
2017-03-13T05:04:40.505Z,925.85
2017-03-13T05:04:55.135Z,925.86
2017-03-13T05:05:09.787Z,925.87
2017-03-13T05:05:24.336Z,925.84
2017-03-13T05:05:38.960Z,925.82
2017-03-13T05:05:53.591Z,925.8
2017-03-13T05:06:08.198Z,925.8
2017-03-13T05:06:22.789Z,925.8
2017-03-13T05:06:37.406Z,925.79
2017-03-13T05:06:51.993Z,925.77
2017-03-13T05:07:06.594Z,925.75
2017-03-13T05:07:21.198Z,925.77
2017-03-13T05:07:35.763Z,925.76
2017-03-13T05:07:50.353Z,925.78
2017-03-13T05:08:04.937Z,925.76
2017-03-13T05:08:19.545Z,925.73
2017-03-13T05:08:34.119Z,925.76
2017-03-13T05:08:48.738Z,925.74
2017-03-13T05:09:03.324Z,925.75
2017-03-13T05:09:17.906Z,925.71
2017-03-13T05:09:32.464Z,925.67
2017-03-13T05:09:47.093Z,925.67
2017-03-13T05:10:01.758Z,925.66
2017-03-13T05:10:16.327Z,925.66
2017-03-13T05:10:30.916Z,925.63
2017-03-13T05:10:45.464Z,925.63
2017-03-13T05:11:00.065Z,925.59
2017-03-13T05:11:14.690Z,925.57
2017-03-13T05:11:29.328Z,925.54
2017-03-13T05:11:43.924Z,925.53
2017-03-13T05:11:58.571Z,925.54
2017-03-13T05:12:13.195Z,925.51
2017-03-13T05:12:27.832Z,925.51
2017-03-13T05:12:42.430Z,925.46
2017-03-13T05:12:57.044Z,925.48
2017-03-13T05:13:11.645Z,925.44
2017-03-13T05:13:26.234Z,925.42
2017-03-13T05:13:40.836Z,925.42
2017-03-13T05:13:55.453Z,925.43
2017-03-13T05:14:10.062Z,925.38
2017-03-13T05:14:24.672Z,925.38
2017-03-13T05:14:39.317Z,925.35
2017-03-13T05:14:54.076Z,925.34
2017-03-13T05:15:08.729Z,925.34
2017-03-13T05:15:23.348Z,925.32
2017-03-13T05:15:37.907Z,925.35
2017-03-13T05:15:52.485Z,925.32
2017-03-13T05:16:07.044Z,925.3
2017-03-13T05:16:21.693Z,925.27
2017-03-13T05:16:36.387Z,925.27
2017-03-13T05:16:51.014Z,925.25
2017-03-13T05:17:05.607Z,925.26
2017-03-13T05:17:20.232Z,925.23
2017-03-13T05:17:34.880Z,925.24
2017-03-13T05:17:49.465Z,925.22
2017-03-13T05:18:04.088Z,925.2
2017-03-13T05:18:18.672Z,925.21
2017-03-13T05:18:33.224Z,925.21
2017-03-13T05:18:47.833Z,925.22
2017-03-13T05:19:02.453Z,925.18
2017-03-13T05:19:17.046Z,925.2
2017-03-13T05:19:31.677Z,925.19
2017-03-13T05:19:46.291Z,925.19
2017-03-13T05:20:01.293Z,925.16
2017-03-13T05:20:15.907Z,925.15
2017-03-13T05:20:30.513Z,925.13
2017-03-13T05:20:45.147Z,925.19
2017-03-13T05:20:59.730Z,925.15
2017-03-13T05:21:14.360Z,925.15
2017-03-13T05:21:28.995Z,925.12
2017-03-13T05:21:43.634Z,925.09
2017-03-13T05:21:58.282Z,925.11
2017-03-13T05:22:12.941Z,925.11
2017-03-13T05:22:27.540Z,925.12
2017-03-13T05:22:42.190Z,925.08
2017-03-13T05:22:56.792Z,925.11
2017-03-13T05:23:11.352Z,925.09
2017-03-13T05:23:25.950Z,925.11
2017-03-13T05:23:40.600Z,925.09
2017-03-13T05:23:55.186Z,925.11
2017-03-13T05:24:09.849Z,925.09
2017-03-13T05:24:24.445Z,925.11
2017-03-13T05:24:39.083Z,925.13
2017-03-13T05:24:53.769Z,925.1
2017-03-13T05:25:08.434Z,925.11
2017-03-13T05:25:23.067Z,925.11
2017-03-13T05:25:37.687Z,925.11
2017-03-13T05:25:52.289Z,925.11
2017-03-13T05:26:06.881Z,925.14
2017-03-13T05:26:21.449Z,925.15
2017-03-13T05:26:36.086Z,925.16
2017-03-13T05:26:50.675Z,925.14
2017-03-13T05:27:05.310Z,925.14
2017-03-13T05:27:19.911Z,925.14
2017-03-13T05:27:34.497Z,925.14
2017-03-13T05:27:49.079Z,925.14
2017-03-13T05:28:03.654Z,925.15
2017-03-13T05:28:18.277Z,925.11
2017-03-13T05:28:32.883Z,925.11
2017-03-13T05:28:47.445Z,925.14
2017-03-13T05:29:02.062Z,925.13
2017-03-13T05:29:16.887Z,925.17
2017-03-13T05:29:31.569Z,925.12
2017-03-13T05:29:46.149Z,925.12
2017-03-13T05:30:01.116Z,925.14
2017-03-13T05:30:15.720Z,925.1
2017-03-13T05:30:30.358Z,925.11
2017-03-13T05:30:44.900Z,925.14
2017-03-13T05:30:59.522Z,925.1
2017-03-13T05:31:14.100Z,925.11
2017-03-13T05:31:28.740Z,925.13
2017-03-13T05:31:43.389Z,925.16
2017-03-13T05:31:57.990Z,925.11
2017-03-13T05:32:12.616Z,925.14
2017-03-13T05:32:27.189Z,925.11
2017-03-13T05:32:41.837Z,925.16
2017-03-13T05:32:57.026Z,925.1
2017-03-13T05:33:11.620Z,925.09
2017-03-13T05:33:26.188Z,925.14
2017-03-13T05:33:40.784Z,925.15
2017-03-13T05:33:55.385Z,925.13
2017-03-13T05:34:09.965Z,925.12
2017-03-13T05:34:24.560Z,925.08
2017-03-13T05:34:39.181Z,925.14
2017-03-13T05:34:53.785Z,925.11
2017-03-13T05:35:08.414Z,925.14
2017-03-13T05:35:23.038Z,925.11
2017-03-13T05:35:37.697Z,925.12
2017-03-13T05:35:52.320Z,925.13
2017-03-13T05:36:06.963Z,925.09
2017-03-13T05:36:21.574Z,925.1
2017-03-13T05:36:36.171Z,925.09
2017-03-13T05:36:50.760Z,925.13
2017-03-13T05:37:05.310Z,925.1
2017-03-13T05:37:19.932Z,925.11
2017-03-13T05:37:34.559Z,925.09
2017-03-13T05:37:49.254Z,925.1
2017-03-13T05:38:03.818Z,925.1
2017-03-13T05:38:18.481Z,925.06
2017-03-13T05:38:33.095Z,925.09
2017-03-13T05:38:47.696Z,925.09
2017-03-13T05:39:02.322Z,925.09
2017-03-13T05:39:16.895Z,925.08
2017-03-13T05:39:31.470Z,925.13
2017-03-13T05:39:46.064Z,925.12
2017-03-13T05:40:00.684Z,925.11
2017-03-13T05:40:15.293Z,925.12
2017-03-13T05:40:29.921Z,925.12
2017-03-13T05:40:44.509Z,925.1
2017-03-13T05:40:59.104Z,925.12
2017-03-13T05:41:13.659Z,925.1
2017-03-13T05:41:28.239Z,925.12
2017-03-13T05:41:42.904Z,925.1
2017-03-13T05:41:57.517Z,925.08
2017-03-13T05:42:12.114Z,925.06
2017-03-13T05:42:26.717Z,925.07
2017-03-13T05:42:41.361Z,925.04
2017-03-13T05:42:56.034Z,925.05
2017-03-13T05:43:10.636Z,925.04
2017-03-13T05:43:25.292Z,925.02
2017-03-13T05:43:39.988Z,925.03
2017-03-13T05:43:54.583Z,925.03
2017-03-13T05:44:09.180Z,925.03
2017-03-13T05:44:23.768Z,925
2017-03-13T05:44:38.364Z,925.01
2017-03-13T05:44:53.000Z,925.01
2017-03-13T05:45:07.775Z,925
2017-03-13T05:45:22.371Z,924.97
2017-03-13T05:45:37.009Z,924.98
2017-03-13T05:45:51.605Z,924.98
2017-03-13T05:46:06.217Z,924.93
2017-03-13T05:46:20.886Z,924.97
2017-03-13T05:46:35.523Z,924.95
2017-03-13T05:46:50.127Z,924.95
2017-03-13T05:47:04.786Z,924.93
2017-03-13T05:47:19.404Z,924.95
2017-03-13T05:47:33.969Z,924.94
2017-03-13T05:47:48.563Z,924.96
2017-03-13T05:48:03.206Z,924.94
2017-03-13T05:48:18.032Z,924.95
2017-03-13T05:48:32.669Z,924.95
2017-03-13T05:48:47.219Z,924.95
2017-03-13T05:49:01.824Z,924.99
2017-03-13T05:49:16.479Z,925.01
2017-03-13T05:49:31.104Z,924.98
2017-03-13T05:49:45.720Z,924.98
2017-03-13T05:50:00.310Z,924.97
2017-03-13T05:50:14.948Z,924.96
2017-03-13T05:50:29.536Z,924.95
2017-03-13T05:50:44.164Z,924.92
2017-03-13T05:50:58.818Z,924.94
2017-03-13T05:51:13.426Z,924.92
2017-03-13T05:51:28.004Z,924.94
2017-03-13T05:51:42.604Z,924.96
2017-03-13T05:51:57.243Z,924.91
2017-03-13T05:52:11.878Z,924.93
2017-03-13T05:52:26.523Z,924.94
2017-03-13T05:52:41.092Z,924.93
2017-03-13T05:52:55.741Z,924.91
2017-03-13T05:53:10.372Z,924.96
2017-03-13T05:53:24.966Z,924.9
2017-03-13T05:53:39.521Z,924.92
2017-03-13T05:53:54.161Z,924.93
2017-03-13T05:54:08.728Z,924.92
2017-03-13T05:54:23.321Z,924.94
2017-03-13T05:54:37.927Z,924.98
2017-03-13T05:54:52.554Z,924.94
2017-03-13T05:55:07.146Z,924.91
2017-03-13T05:55:21.759Z,924.95
2017-03-13T05:55:36.334Z,924.94
2017-03-13T05:55:50.948Z,924.93
2017-03-13T05:56:05.554Z,924.92
2017-03-13T05:56:20.170Z,924.9
2017-03-13T05:56:34.745Z,924.91
2017-03-13T05:56:49.336Z,924.9
2017-03-13T05:57:03.928Z,924.89
2017-03-13T05:57:18.586Z,924.92
2017-03-13T05:57:33.221Z,924.89
2017-03-13T05:57:47.881Z,924.93
2017-03-13T05:58:02.563Z,924.91
2017-03-13T05:58:17.185Z,924.88
2017-03-13T05:58:31.736Z,924.84
2017-03-13T05:58:46.400Z,924.86
2017-03-13T05:59:01.094Z,924.87